Time;durP1;ratioP1;P1;durP2;ratioP2;P2;SDS_P1;SDS_P2;PMS_P1;PMS_P2;Temp;Humidity;BMP_temperature;BMP_pressure;BME280_temperature;BME280_humidity;BME280_pressure;Samples;Min_cycle;Max_cycle;Signal;HPM_P1;HPM_P2
2022/11/30 00:01:23;;;;;;;10.30;7.05;;;3.90;99.90;;;;;;5065834;28;20112;-83
2022/11/30 00:03:52;;;;;;;12.77;7.28;;;3.90;99.90;;;;;;5061392;28;20025;-83
2022/11/30 00:06:24;;;;;;;12.15;7.60;;;3.90;99.90;;;;;;5065166;28;20031;-83
2022/11/30 00:08:55;;;;;;;11.90;7.53;;;3.90;99.90;;;;;;5031994;28;20477;-83
2022/11/30 00:11:22;;;;;;;10.65;6.70;;;3.90;99.90;;;;;;5039121;28;20106;-83
2022/11/30 00:13:49;;;;;;;12.13;7.35;;;3.90;99.90;;;;;;5045957;28;20131;-84
2022/11/30 00:16:15;;;;;;;14.23;8.55;;;4.00;99.90;;;;;;5061696;28;20032;-84
2022/11/30 00:18:40;;;;;;;12.07;7.95;;;3.90;99.90;;;;;;5047806;28;20035;-83
2022/11/30 00:21:09;;;;;;;12.50;7.70;;;3.90;99.90;;;;;;5051481;28;20028;-83
2022/11/30 00:23:37;;;;;;;11.25;7.57;;;3.90;99.90;;;;;;5051698;28;20032;-83
2022/11/30 00:26:08;;;;;;;12.50;7.70;;;3.90;99.90;;;;;;5048118;28;20053;-83
2022/11/30 00:28:35;;;;;;;11.75;7.55;;;3.80;99.90;;;;;;5056597;28;20043;-83
2022/11/30 00:31:09;;;;;;;12.25;7.28;;;3.90;99.90;;;;;;5046915;28;20397;-83
2022/11/30 00:33:37;;;;;;;10.35;6.80;;;3.90;99.90;;;;;;5052031;28;20037;-83
2022/11/30 00:36:09;;;;;;;11.50;7.32;;;3.90;99.90;;;;;;5051355;28;20037;-84
2022/11/30 00:38:35;;;;;;;12.40;7.43;;;4.00;99.90;;;;;;5048187;28;20033;-83
2022/11/30 00:41:01;;;;;;;11.60;7.18;;;4.00;99.90;;;;;;5016701;28;20048;-83
2022/11/30 00:43:28;;;;;;;11.35;7.60;;;4.00;99.90;;;;;;5050964;28;20040;-83
2022/11/30 00:45:54;;;;;;;11.30;7.10;;;4.00;99.90;;;;;;5062961;28;20025;-83
2022/11/30 00:48:20;;;;;;;12.45;7.53;;;4.00;99.90;;;;;;5048379;28;20021;-83
2022/11/30 00:50:48;;;;;;;10.32;7.32;;;4.00;99.90;;;;;;5047976;28;20527;-83
2022/11/30 00:53:14;;;;;;;14.00;7.97;;;4.00;99.90;;;;;;5068180;28;20040;-83
2022/11/30 00:55:42;;;;;;;12.77;8.15;;;3.90;99.90;;;;;;5045107;28;20063;-83
2022/11/30 00:58:08;;;;;;;12.18;8.15;;;3.90;99.90;;;;;;5052958;28;20036;-83
2022/11/30 01:00:34;;;;;;;13.70;8.40;;;3.90;99.90;;;;;;5049814;28;20051;-84
2022/11/30 01:03:01;;;;;;;12.75;8.00;;;3.90;99.90;;;;;;5051984;28;20469;-83
2022/11/30 01:05:28;;;;;;;12.95;7.68;;;3.90;99.90;;;;;;5050004;28;20036;-83
2022/11/30 01:07:53;;;;;;;12.18;8.23;;;3.90;99.90;;;;;;5068095;28;20056;-83
2022/11/30 01:10:19;;;;;;;12.45;8.05;;;4.00;99.90;;;;;;5050523;28;20532;-83
2022/11/30 01:12:45;;;;;;;13.45;8.18;;;4.00;99.90;;;;;;5018587;28;20037;-83
2022/11/30 01:15:11;;;;;;;13.25;7.88;;;4.00;99.90;;;;;;5034279;28;20041;-83
2022/11/30 01:17:37;;;;;;;12.15;7.38;;;4.00;99.90;;;;;;5052874;28;20037;-83
2022/11/30 01:20:04;;;;;;;12.63;8.10;;;3.90;99.90;;;;;;5042155;28;20029;-83
2022/11/30 01:22:30;;;;;;;13.23;7.97;;;4.00;99.90;;;;;;5049965;28;20252;-84
2022/11/30 01:24:55;;;;;;;12.82;8.50;;;4.00;99.90;;;;;;5068500;28;20029;-83
2022/11/30 01:27:21;;;;;;;13.50;8.30;;;4.00;99.90;;;;;;5053754;28;20024;-83
2022/11/30 01:29:47;;;;;;;12.43;7.68;;;3.90;99.90;;;;;;5033995;28;20032;-84
2022/11/30 01:32:13;;;;;;;12.90;8.20;;;3.90;99.90;;;;;;5047360;28;20039;-84
2022/11/30 01:34:39;;;;;;;13.85;8.43;;;3.90;99.90;;;;;;5018389;28;20047;-83
2022/11/30 01:37:04;;;;;;;14.88;9.00;;;3.90;99.90;;;;;;5035422;28;20123;-82
2022/11/30 01:39:30;;;;;;;13.73;8.23;;;3.90;99.90;;;;;;5017640;28;20040;-84
2022/11/30 01:41:56;;;;;;;13.23;8.25;;;3.90;99.90;;;;;;5022350;28;20553;-84
2022/11/30 01:44:25;;;;;;;12.30;8.00;;;3.90;99.90;;;;;;5038445;28;20102;-83
2022/11/30 01:47:01;;;;;;;13.13;9.15;;;3.90;99.90;;;;;;5044472;28;20048;-83
2022/11/30 01:49:34;;;;;;;13.13;8.02;;;3.80;99.90;;;;;;5052181;28;20039;-84
2022/11/30 01:52:12;;;;;;;12.90;7.90;;;3.80;99.90;;;;;;5052355;28;20056;-84
2022/11/30 01:54:46;;;;;;;13.45;8.93;;;3.80;99.90;;;;;;5031951;28;20082;-83
2022/11/30 01:57:30;;;;;;;12.00;7.88;;;3.80;99.90;;;;;;5037507;28;20555;-83
2022/11/30 01:59:59;;;;;;;12.68;7.90;;;3.80;99.90;;;;;;5049435;28;20040;-83
2022/11/30 02:02:43;;;;;;;12.98;7.43;;;3.70;99.90;;;;;;5058828;28;20427;-83
2022/11/30 02:05:11;;;;;;;10.80;7.10;;;3.70;99.90;;;;;;5069814;28;20473;-84
2022/11/30 02:07:37;;;;;;;13.63;7.13;;;3.70;99.90;;;;;;5050277;28;20101;-83
2022/11/30 02:10:03;;;;;;;11.80;7.10;;;3.70;99.90;;;;;;5053549;28;20067;-83
2022/11/30 02:12:48;;;;;;;12.30;7.78;;;3.70;99.90;;;;;;5035073;28;20036;-83
2022/11/30 02:15:20;;;;;;;11.05;6.85;;;3.70;99.90;;;;;;5034051;28;20031;-83
2022/11/30 02:18:00;;;;;;;10.35;7.35;;;3.70;99.90;;;;;;5042517;28;20033;-84
2022/11/30 02:20:47;;;;;;;11.90;7.38;;;3.70;99.90;;;;;;5053844;28;20363;-83
2022/11/30 02:23:37;;;;;;;12.40;7.90;;;3.70;99.90;;;;;;5047946;28;20063;-83
2022/11/30 02:26:06;;;;;;;12.65;8.00;;;3.80;99.90;;;;;;5037897;28;20036;-83
2022/11/30 02:28:56;;;;;;;12.48;7.78;;;3.80;99.90;;;;;;5076834;28;20036;-83
2022/11/30 02:31:45;;;;;;;12.70;7.50;;;3.70;99.90;;;;;;5051331;28;20056;-83
2022/11/30 02:34:14;;;;;;;14.05;8.10;;;3.70;99.90;;;;;;5050166;28;20041;-83
2022/11/30 02:36:41;;;;;;;13.07;7.78;;;3.80;99.90;;;;;;5048826;28;20459;-84
2022/11/30 02:39:08;;;;;;;12.27;7.45;;;3.80;99.90;;;;;;5039375;28;20517;-83
2022/11/30 02:41:39;;;;;;;11.85;8.23;;;3.80;99.90;;;;;;5035259;28;20033;-84
2022/11/30 02:44:08;;;;;;;15.68;9.40;;;3.80;99.90;;;;;;5049930;28;20041;-83
2022/11/30 02:47:19;;;;;;;17.30;9.57;;;3.80;99.90;;;;;;5033673;28;20091;-84
2022/11/30 02:49:53;;;;;;;14.65;9.05;;;3.90;99.90;;;;;;5064341;28;20068;-84
2022/11/30 02:52:21;;;;;;;14.40;8.70;;;3.90;99.90;;;;;;5052521;28;20040;-83
2022/11/30 02:54:47;;;;;;;15.23;8.55;;;3.90;99.90;;;;;;5068889;28;20519;-83
2022/11/30 02:57:13;;;;;;;14.13;8.55;;;3.90;99.90;;;;;;5049025;28;20067;-83
2022/11/30 02:59:39;;;;;;;13.25;8.48;;;3.90;99.90;;;;;;5032600;28;20075;-83
2022/11/30 03:02:05;;;;;;;12.98;8.23;;;3.80;99.90;;;;;;5052365;28;20051;-83
2022/11/30 03:04:31;;;;;;;12.77;8.52;;;3.80;99.90;;;;;;5036577;28;20103;-83
2022/11/30 03:06:56;;;;;;;13.73;8.70;;;3.80;99.90;;;;;;5016698;28;20049;-82
2022/11/30 03:09:22;;;;;;;13.70;8.60;;;3.80;99.90;;;;;;5066585;28;20021;-84
2022/11/30 03:11:48;;;;;;;14.77;9.10;;;3.80;99.90;;;;;;5036194;28;20036;-83
2022/11/30 03:14:14;;;;;;;15.95;9.55;;;3.80;99.90;;;;;;5049150;28;20511;-83
2022/11/30 03:16:40;;;;;;;13.35;8.27;;;3.90;99.90;;;;;;5050808;28;20037;-83
2022/11/30 03:19:05;;;;;;;14.20;8.85;;;4.00;99.90;;;;;;5051796;28;20040;-83
2022/11/30 03:21:31;;;;;;;15.68;8.93;;;4.00;99.90;;;;;;5052485;28;20037;-83
2022/11/30 03:23:57;;;;;;;15.18;9.32;;;4.00;99.90;;;;;;5051620;28;20560;-83
2022/11/30 03:26:23;;;;;;;16.88;9.35;;;4.00;99.90;;;;;;5032929;28;20358;-83
2022/11/30 03:28:49;;;;;;;15.57;9.38;;;4.00;99.90;;;;;;5026075;28;20433;-83
2022/11/30 03:31:14;;;;;;;13.70;9.02;;;3.90;99.90;;;;;;5039655;28;20032;-83
2022/11/30 03:33:40;;;;;;;15.43;8.88;;;3.90;99.90;;;;;;5058015;28;20135;-82
2022/11/30 03:36:09;;;;;;;17.38;9.10;;;3.90;99.90;;;;;;5028227;28;20037;-84
2022/11/30 03:38:36;;;;;;;16.33;9.23;;;3.80;99.90;;;;;;5060398;28;20608;-83
2022/11/30 03:41:04;;;;;;;12.38;7.88;;;3.80;99.90;;;;;;5068148;28;20048;-83
2022/11/30 03:43:30;;;;;;;12.10;8.15;;;3.80;99.90;;;;;;5051647;28;20025;-83
2022/11/30 03:45:56;;;;;;;12.18;7.88;;;3.80;99.90;;;;;;5031969;28;20029;-83
2022/11/30 03:48:22;;;;;;;14.55;8.45;;;3.70;99.90;;;;;;5051014;28;20032;-83
2022/11/30 03:50:49;;;;;;;13.45;7.80;;;3.70;99.90;;;;;;5051600;28;20557;-83
2022/11/30 03:53:20;;;;;;;12.77;7.90;;;3.70;99.90;;;;;;5035438;28;20076;-83
2022/11/30 03:55:50;;;;;;;11.35;7.53;;;3.80;99.90;;;;;;5047979;28;20068;-83
2022/11/30 03:58:16;;;;;;;12.30;8.10;;;3.80;99.90;;;;;;5057709;28;20036;-84
2022/11/30 04:00:42;;;;;;;13.93;8.15;;;3.80;99.90;;;;;;5051150;28;20127;-83
2022/11/30 04:03:07;;;;;;;11.68;7.80;;;3.80;99.90;;;;;;5064992;28;20064;-83
2022/11/30 04:05:33;;;;;;;13.13;8.15;;;3.80;99.90;;;;;;5037763;28;20032;-83
2022/11/30 04:07:59;;;;;;;13.93;8.77;;;3.80;99.90;;;;;;5066937;28;20035;-84
2022/11/30 04:10:25;;;;;;;14.43;8.68;;;3.80;99.90;;;;;;5050712;28;20128;-83
2022/11/30 04:12:51;;;;;;;15.10;9.52;;;3.70;99.90;;;;;;5034897;28;20836;-83
2022/11/30 04:15:16;;;;;;;16.33;9.82;;;3.70;99.90;;;;;;5050953;28;20475;-83
2022/11/30 04:17:42;;;;;;;16.88;9.75;;;3.70;99.90;;;;;;5059855;28;20040;-84
2022/11/30 04:20:08;;;;;;;20.45;10.52;;;3.70;99.90;;;;;;5015007;28;20040;-83
2022/11/30 04:22:34;;;;;;;19.73;10.85;;;3.70;99.90;;;;;;5034497;28;20037;-83
2022/11/30 04:25:00;;;;;;;17.20;10.00;;;3.70;99.90;;;;;;5048224;28;20040;-83
2022/11/30 04:27:28;;;;;;;17.60;10.18;;;3.70;99.90;;;;;;5028002;28;20029;-83
2022/11/30 04:29:54;;;;;;;18.67;10.48;;;3.70;99.90;;;;;;5043377;28;20032;-83
2022/11/30 04:32:19;;;;;;;19.05;10.40;;;3.70;99.90;;;;;;5033646;28;20028;-83
2022/11/30 04:34:45;;;;;;;16.83;10.20;;;3.70;99.90;;;;;;5050444;28;20591;-83
2022/11/30 04:37:11;;;;;;;18.35;10.57;;;3.80;99.90;;;;;;5033472;28;20043;-83
2022/11/30 04:39:37;;;;;;;18.27;10.18;;;3.70;99.90;;;;;;5034506;28;20036;-83
2022/11/30 04:42:03;;;;;;;18.30;10.80;;;3.70;99.90;;;;;;5049779;28;20117;-83
2022/11/30 04:44:28;;;;;;;17.90;10.25;;;3.70;99.90;;;;;;5050347;28;20040;-83
2022/11/30 04:46:54;;;;;;;20.38;11.38;;;3.70;99.90;;;;;;5050296;28;20036;-83
2022/11/30 04:49:20;;;;;;;19.08;10.77;;;3.70;99.90;;;;;;5051002;28;20033;-83
2022/11/30 04:51:46;;;;;;;22.90;11.70;;;3.70;99.90;;;;;;5033778;28;20025;-83
2022/11/30 04:54:11;;;;;;;18.27;11.25;;;3.70;99.90;;;;;;5050300;28;20553;-83
2022/11/30 04:56:37;;;;;;;20.35;11.10;;;3.70;99.90;;;;;;5031120;28;20120;-83
2022/11/30 04:59:03;;;;;;;21.45;11.73;;;3.60;99.90;;;;;;5032559;28;20087;-83
2022/11/30 05:01:29;;;;;;;20.83;10.20;;;3.60;99.90;;;;;;5043882;28;20555;-82
2022/11/30 05:03:58;;;;;;;19.60;10.05;;;3.60;99.90;;;;;;5026986;28;20037;-83
2022/11/30 05:06:24;;;;;;;21.50;11.45;;;3.50;99.90;;;;;;5032205;28;20029;-83
2022/11/30 05:08:50;;;;;;;19.38;10.63;;;3.50;99.90;;;;;;5059246;28;20024;-83
2022/11/30 05:11:16;;;;;;;19.73;11.45;;;3.50;99.90;;;;;;5047355;28;20037;-82
2022/11/30 05:13:42;;;;;;;20.38;11.02;;;3.50;99.90;;;;;;5053926;28;20036;-83
2022/11/30 05:16:09;;;;;;;21.90;11.23;;;3.50;99.90;;;;;;5050750;28;20029;-83
2022/11/30 05:18:35;;;;;;;21.80;11.13;;;3.50;99.90;;;;;;5035596;28;20561;-83
2022/11/30 05:21:01;;;;;;;20.73;11.82;;;3.50;99.90;;;;;;5053646;28;20048;-84
2022/11/30 05:23:27;;;;;;;23.25;12.23;;;3.50;99.90;;;;;;5054115;28;20798;-83
2022/11/30 05:25:53;;;;;;;23.73;11.75;;;3.50;99.90;;;;;;5072552;28;20035;-83
2022/11/30 05:28:19;;;;;;;20.83;11.70;;;3.50;99.90;;;;;;5054259;28;20123;-82
2022/11/30 05:30:45;;;;;;;21.88;11.35;;;3.40;99.90;;;;;;5053615;28;20071;-83
2022/11/30 05:33:11;;;;;;;19.83;11.48;;;3.40;99.90;;;;;;5051705;28;20047;-83
2022/11/30 05:35:37;;;;;;;20.60;11.57;;;3.40;99.90;;;;;;5054011;28;20025;-84
2022/11/30 05:38:04;;;;;;;21.08;11.13;;;3.40;99.90;;;;;;5054379;28;20032;-83
2022/11/30 05:40:31;;;;;;;21.15;11.40;;;3.30;99.90;;;;;;5053328;28;20021;-83
2022/11/30 05:42:59;;;;;;;21.55;11.43;;;3.40;99.90;;;;;;5053550;28;20109;-83
2022/11/30 05:45:25;;;;;;;21.48;12.18;;;3.40;99.90;;;;;;5053342;28;20020;-83
2022/11/30 05:47:51;;;;;;;20.90;11.32;;;3.30;99.90;;;;;;5053888;28;20142;-83
2022/11/30 05:50:17;;;;;;;22.55;11.98;;;3.40;99.90;;;;;;5052655;28;20029;-82
2022/11/30 05:52:43;;;;;;;23.73;12.25;;;3.30;99.90;;;;;;5053307;28;20409;-82
2022/11/30 05:55:09;;;;;;;21.50;10.95;;;3.30;99.90;;;;;;5053603;28;20043;-83
2022/11/30 05:57:36;;;;;;;20.40;10.80;;;3.30;99.90;;;;;;5053806;28;20470;-83
2022/11/30 06:00:07;;;;;;;23.13;10.82;;;3.30;99.90;;;;;;5053518;28;20064;-83
2022/11/30 06:02:37;;;;;;;19.27;9.75;;;3.40;99.90;;;;;;5057344;28;20076;-83
2022/11/30 06:05:03;;;;;;;20.75;10.38;;;3.40;99.90;;;;;;5044545;28;20025;-83
2022/11/30 06:07:29;;;;;;;19.13;10.63;;;3.40;99.90;;;;;;5037186;28;20029;-83
2022/11/30 06:09:55;;;;;;;18.27;10.20;;;3.30;99.90;;;;;;5050204;28;20078;-83
2022/11/30 06:12:21;;;;;;;19.05;10.50;;;3.40;99.90;;;;;;5017548;28;20109;-83
2022/11/30 06:14:49;;;;;;;22.67;11.20;;;3.40;99.90;;;;;;5053554;28;20033;-84
2022/11/30 06:17:15;;;;;;;20.73;11.20;;;3.40;99.90;;;;;;5053456;28;20036;-84
2022/11/30 06:19:41;;;;;;;23.67;12.23;;;3.40;99.90;;;;;;5054047;28;20039;-84
2022/11/30 06:22:07;;;;;;;23.27;12.68;;;3.50;99.90;;;;;;5049429;28;20401;-83
2022/11/30 06:24:33;;;;;;;23.17;11.85;;;3.50;99.90;;;;;;5020701;28;20029;-84
2022/11/30 06:26:59;;;;;;;25.88;12.50;;;3.50;99.90;;;;;;5028650;28;20120;-84
2022/11/30 06:29:24;;;;;;;20.42;12.27;;;3.50;99.90;;;;;;5039113;28;20032;-84
2022/11/30 06:31:50;;;;;;;21.00;12.63;;;3.50;99.90;;;;;;5053475;28;20477;-84
2022/11/30 06:34:16;;;;;;;22.90;12.27;;;3.50;99.90;;;;;;5052341;28;20032;-83
2022/11/30 06:36:42;;;;;;;20.88;11.95;;;3.50;99.90;;;;;;5060840;28;20070;-84
2022/11/30 06:39:09;;;;;;;23.65;11.60;;;3.40;99.90;;;;;;5049667;28;20036;-84
2022/11/30 06:41:34;;;;;;;21.63;11.57;;;3.40;99.90;;;;;;5060614;28;20033;-84
2022/11/30 06:44:00;;;;;;;20.02;11.02;;;3.40;99.90;;;;;;5049203;28;20037;-84
2022/11/30 06:46:26;;;;;;;24.00;12.45;;;3.50;99.90;;;;;;5010245;28;20051;-83
2022/11/30 06:48:52;;;;;;;23.23;11.85;;;3.50;99.90;;;;;;5052766;28;20033;-83
2022/11/30 06:51:18;;;;;;;25.35;12.27;;;3.50;99.90;;;;;;5042986;28;20033;-84
2022/11/30 06:53:45;;;;;;;25.27;12.60;;;3.50;99.90;;;;;;5052375;28;20036;-83
2022/11/30 06:56:11;;;;;;;19.75;11.10;;;3.40;99.90;;;;;;5068757;28;20037;-84
2022/11/30 06:58:40;;;;;;;22.42;12.68;;;3.40;99.90;;;;;;5069293;28;20075;-83
2022/11/30 07:01:12;;;;;;;22.00;11.00;;;3.40;99.90;;;;;;5063107;28;20024;-84
2022/11/30 07:03:39;;;;;;;21.27;11.90;;;3.40;99.90;;;;;;5066616;28;20042;-84
2022/11/30 07:06:13;;;;;;;21.60;12.02;;;3.40;99.90;;;;;;5038027;28;20047;-83
2022/11/30 07:08:40;;;;;;;21.73;12.13;;;3.40;99.90;;;;;;5016869;28;20033;-84
2022/11/30 07:11:08;;;;;;;25.73;13.02;;;3.40;99.90;;;;;;5047623;28;20056;-85
2022/11/30 07:13:33;;;;;;;24.40;13.98;;;3.40;99.90;;;;;;5060849;28;20711;-84
2022/11/30 07:16:06;;;;;;;22.50;12.68;;;3.40;99.90;;;;;;5035831;28;20123;-85
2022/11/30 07:18:33;;;;;;;22.63;12.07;;;3.40;99.90;;;;;;5048094;28;20028;-84
2022/11/30 07:21:00;;;;;;;23.20;12.13;;;3.40;99.90;;;;;;5043435;28;20091;-84
2022/11/30 07:26:11;;;;;;;24.57;13.17;;;3.40;99.90;;;;;;5034998;28;20541;-85
2022/11/30 07:28:38;;;;;;;27.65;14.02;;;3.50;99.90;;;;;;5052624;28;20401;-85
2022/11/30 07:31:19;;;;;;;23.40;12.00;;;3.50;99.90;;;;;;5043643;28;20029;-85
2022/11/30 07:33:45;;;;;;;26.38;13.23;;;3.50;99.90;;;;;;5052081;28;20048;-85
2022/11/30 07:36:12;;;;;;;23.42;12.27;;;3.60;99.90;;;;;;5040766;28;20036;-84
2022/11/30 07:38:38;;;;;;;28.67;13.32;;;3.60;99.90;;;;;;5017403;28;20636;-84
2022/11/30 07:41:07;;;;;;;26.50;12.75;;;3.60;99.90;;;;;;5051169;28;20530;-85
2022/11/30 07:43:33;;;;;;;22.30;12.45;;;3.60;99.90;;;;;;5051675;28;20028;-84
2022/11/30 07:46:00;;;;;;;27.40;12.43;;;3.60;99.90;;;;;;5033584;28;20038;-84
2022/11/30 07:48:26;;;;;;;25.42;12.15;;;3.60;99.90;;;;;;5061443;28;20581;-83
2022/11/30 07:50:51;;;;;;;22.52;11.13;;;3.60;99.90;;;;;;5035063;28;20044;-84
2022/11/30 07:53:17;;;;;;;24.35;13.27;;;3.50;99.90;;;;;;5022404;28;20033;-84
2022/11/30 07:55:43;;;;;;;22.17;11.52;;;3.50;99.90;;;;;;5024419;28;20032;-84
2022/11/30 07:58:10;;;;;;;23.95;11.88;;;3.50;99.90;;;;;;5039558;28;20036;-86
2022/11/30 08:00:36;;;;;;;20.63;10.40;;;3.40;99.90;;;;;;5044511;28;20032;-84
2022/11/30 08:03:03;;;;;;;24.77;11.70;;;3.40;99.90;;;;;;5039444;28;20127;-84
2022/11/30 08:05:29;;;;;;;20.67;11.15;;;3.50;99.90;;;;;;5050848;28;20033;-85
2022/11/30 08:07:55;;;;;;;24.30;12.55;;;3.50;99.90;;;;;;5064447;28;20020;-85
2022/11/30 08:10:22;;;;;;;23.15;11.40;;;3.50;99.90;;;;;;5048403;28;20504;-83
2022/11/30 08:12:48;;;;;;;25.83;12.60;;;3.50;99.90;;;;;;5048818;28;20028;-84
2022/11/30 08:15:14;;;;;;;25.85;11.98;;;3.40;99.90;;;;;;5044741;28;20033;-84
2022/11/30 08:17:40;;;;;;;25.20;11.32;;;3.40;99.90;;;;;;5048458;28;20037;-83
2022/11/30 08:20:07;;;;;;;24.27;11.80;;;3.40;99.90;;;;;;5047893;28;20036;-83
2022/11/30 08:22:33;;;;;;;25.65;13.23;;;3.40;99.90;;;;;;5037386;28;20036;-84
2022/11/30 08:24:59;;;;;;;25.17;12.68;;;3.40;99.90;;;;;;5063390;28;20031;-85
2022/11/30 08:27:25;;;;;;;25.23;12.80;;;3.50;99.90;;;;;;5064521;28;20036;-85
2022/11/30 08:29:51;;;;;;;29.40;13.60;;;3.50;99.90;;;;;;5043584;28;20044;-83
2022/11/30 08:32:17;;;;;;;23.85;11.70;;;3.50;99.90;;;;;;5044499;28;20438;-83
2022/11/30 08:34:43;;;;;;;25.02;13.05;;;3.50;99.90;;;;;;5047911;28;20032;-83
2022/11/30 08:37:09;;;;;;;24.77;12.85;;;3.50;99.90;;;;;;5043854;28;20045;-84
2022/11/30 08:39:35;;;;;;;30.17;13.20;;;3.50;99.90;;;;;;5067282;28;20058;-83
2022/11/30 08:42:01;;;;;;;31.15;13.70;;;3.50;99.90;;;;;;5047563;28;20064;-84
2022/11/30 08:44:28;;;;;;;26.35;13.35;;;3.50;99.90;;;;;;5057155;28;20048;-84
2022/11/30 08:46:55;;;;;;;30.60;15.02;;;3.50;99.90;;;;;;5006349;28;20044;-84
2022/11/30 08:49:22;;;;;;;32.13;14.35;;;3.50;99.90;;;;;;5067423;28;20455;-83
2022/11/30 08:51:52;;;;;;;29.50;13.70;;;3.50;99.90;;;;;;5067228;28;20528;-83
2022/11/30 08:54:18;;;;;;;29.35;13.05;;;3.50;99.90;;;;;;5050494;28;20111;-84
2022/11/30 08:56:44;;;;;;;29.30;13.77;;;3.40;99.90;;;;;;5043412;28;20036;-83
2022/11/30 08:59:10;;;;;;;29.40;13.23;;;3.40;99.90;;;;;;5040594;28;20124;-84
2022/11/30 09:01:36;;;;;;;28.27;13.75;;;3.50;99.90;;;;;;5050944;28;20044;-84
2022/11/30 09:04:02;;;;;;;31.77;13.82;;;3.40;99.90;;;;;;5037234;28;20052;-84
2022/11/30 09:06:29;;;;;;;29.48;13.43;;;3.40;99.90;;;;;;5023251;28;20029;-84
2022/11/30 09:08:57;;;;;;;31.20;14.32;;;3.50;99.90;;;;;;5048333;28;20025;-83
2022/11/30 09:11:28;;;;;;;31.48;14.52;;;3.50;99.90;;;;;;5062992;28;20040;-84
2022/11/30 09:13:56;;;;;;;33.45;14.18;;;3.40;99.90;;;;;;5052133;28;20032;-84
2022/11/30 09:16:23;;;;;;;31.83;13.52;;;3.40;99.90;;;;;;5047740;28;20051;-83
2022/11/30 09:18:50;;;;;;;33.53;14.65;;;3.40;99.90;;;;;;5044654;28;20041;-83
2022/11/30 09:21:18;;;;;;;31.55;14.48;;;3.40;99.90;;;;;;5031343;28;20033;-83
2022/11/30 09:23:47;;;;;;;32.53;13.82;;;3.30;99.90;;;;;;5027215;28;20051;-83
2022/11/30 09:26:16;;;;;;;34.10;14.98;;;3.30;99.90;;;;;;5034977;28;20093;-84
2022/11/30 09:28:44;;;;;;;30.80;14.13;;;3.30;99.90;;;;;;5053395;28;20493;-83
2022/11/30 09:31:15;;;;;;;32.22;13.85;;;3.30;99.90;;;;;;5065468;28;20021;-84
2022/11/30 09:33:42;;;;;;;35.80;14.45;;;3.30;99.90;;;;;;5048757;28;20706;-84
2022/11/30 09:36:10;;;;;;;34.70;14.50;;;3.30;99.90;;;;;;5066004;28;20028;-84
2022/11/30 09:38:36;;;;;;;33.00;14.43;;;3.30;99.90;;;;;;5066003;28;20033;-83
2022/11/30 09:41:10;;;;;;;33.35;14.63;;;3.30;99.90;;;;;;5048074;28;20369;-83
2022/11/30 09:43:54;;;;;;;34.88;15.40;;;3.30;99.90;;;;;;5056973;28;20040;-84
2022/11/30 09:46:27;;;;;;;35.13;15.18;;;3.30;99.90;;;;;;5065751;28;20036;-84
2022/11/30 09:49:01;;;;;;;35.92;14.18;;;3.30;99.90;;;;;;5052258;28;20394;-84
2022/11/30 09:51:45;;;;;;;36.08;15.10;;;3.30;99.90;;;;;;5034693;28;20067;-84
2022/11/30 09:54:35;;;;;;;36.72;16.63;;;3.40;99.90;;;;;;5072180;28;20067;-84
2022/11/30 09:57:23;;;;;;;37.17;16.13;;;3.40;99.90;;;;;;5045238;28;20036;-84
2022/11/30 09:59:58;;;;;;;38.05;15.40;;;3.40;99.90;;;;;;5055039;28;20033;-84
2022/11/30 10:02:29;;;;;;;36.17;14.68;;;3.40;99.90;;;;;;5048873;28;20029;-84
2022/11/30 10:04:56;;;;;;;41.10;15.85;;;3.40;99.90;;;;;;5047788;28;20078;-84
2022/11/30 10:07:46;;;;;;;36.45;15.38;;;3.40;99.90;;;;;;5064836;28;20036;-84
2022/11/30 10:10:37;;;;;;;39.58;16.27;;;3.40;99.90;;;;;;5051713;28;20029;-84
2022/11/30 10:13:26;;;;;;;38.38;16.70;;;3.50;99.90;;;;;;5063306;28;20033;-84
2022/11/30 10:16:17;;;;;;;36.75;16.63;;;3.50;99.90;;;;;;5051245;28;20123;-84
2022/11/30 10:19:08;;;;;;;40.30;16.83;;;3.50;99.90;;;;;;5046134;28;20425;-85
2022/11/30 10:22:12;;;;;;;35.97;17.17;;;3.50;99.90;;;;;;5059347;28;20036;-84
2022/11/30 10:24:55;;;;;;;38.63;16.27;;;3.50;99.90;;;;;;5068335;28;20501;-84
2022/11/30 10:27:27;;;;;;;38.22;16.88;;;3.50;99.90;;;;;;5041372;28;20349;-84
2022/11/30 10:29:54;;;;;;;40.15;16.23;;;3.50;99.90;;;;;;5051572;28;20024;-84
2022/11/30 10:32:22;;;;;;;37.13;15.23;;;3.50;99.90;;;;;;5055180;28;20024;-84
2022/11/30 10:34:53;;;;;;;37.53;16.15;;;3.40;99.90;;;;;;5052320;28;20033;-84
2022/11/30 10:37:34;;;;;;;34.33;15.90;;;3.50;99.90;;;;;;5059678;28;20036;-84
2022/11/30 10:40:04;;;;;;;40.60;16.63;;;3.40;99.90;;;;;;5051583;28;20559;-84
2022/11/30 10:42:41;;;;;;;36.28;16.63;;;3.40;99.90;;;;;;5067983;28;20063;-83
2022/11/30 10:45:15;;;;;;;35.13;15.00;;;3.50;99.90;;;;;;5064536;28;20039;-84
2022/11/30 10:48:04;;;;;;;46.08;16.90;;;3.50;99.90;;;;;;5034608;28;20075;-84
2022/11/30 10:50:30;;;;;;;37.72;15.98;;;3.60;99.90;;;;;;5047442;28;20565;-84
2022/11/30 10:52:58;;;;;;;39.10;16.92;;;3.60;99.90;;;;;;5054551;28;20105;-85
2022/11/30 10:55:33;;;;;;;35.70;16.08;;;3.60;99.90;;;;;;5054346;28;20037;-83
2022/11/30 10:58:14;;;;;;;36.15;15.18;;;3.60;99.90;;;;;;5064902;28;20508;-84
2022/11/30 11:00:48;;;;;;;35.05;14.90;;;3.60;99.90;;;;;;5046479;28;20037;-84
2022/11/30 11:03:25;;;;;;;32.25;14.85;;;3.50;99.90;;;;;;5051625;28;20397;-83
2022/11/30 11:06:09;;;;;;;35.03;15.23;;;3.50;99.90;;;;;;5046687;28;20516;-84
2022/11/30 11:08:35;;;;;;;35.63;15.63;;;3.50;99.90;;;;;;5055482;28;20120;-83
2022/11/30 11:11:01;;;;;;;37.40;16.63;;;3.50;99.90;;;;;;5047692;28;20141;-84
2022/11/30 11:13:42;;;;;;;35.88;15.90;;;3.50;99.90;;;;;;5033227;28;20039;-84
2022/11/30 11:16:11;;;;;;;32.53;14.95;;;3.60;99.90;;;;;;5048892;28;20064;-84
2022/11/30 11:18:51;;;;;;;33.72;14.95;;;3.60;99.90;;;;;;5047213;28;20555;-84
2022/11/30 11:21:19;;;;;;;32.55;15.23;;;3.70;99.90;;;;;;5055003;28;20477;-84
2022/11/30 11:23:48;;;;;;;34.60;16.08;;;3.70;99.90;;;;;;5061132;28;20094;-84
2022/11/30 11:26:20;;;;;;;29.15;14.23;;;3.70;99.90;;;;;;5066325;28;20113;-84
2022/11/30 11:28:50;;;;;;;36.03;16.58;;;3.80;99.90;;;;;;5051129;28;20124;-84
2022/11/30 11:31:41;;;;;;;34.50;15.85;;;3.80;99.90;;;;;;5046393;28;20033;-84
2022/11/30 11:34:30;;;;;;;29.33;14.40;;;3.80;99.90;;;;;;5030902;28;20037;-84
2022/11/30 11:37:13;;;;;;;30.98;14.52;;;3.80;99.90;;;;;;5057809;28;20409;-83
2022/11/30 11:39:39;;;;;;;27.83;13.93;;;3.80;99.90;;;;;;5065273;28;20044;-84
2022/11/30 11:42:12;;;;;;;26.90;13.73;;;3.80;99.90;;;;;;5049119;28;20036;-84
2022/11/30 11:44:38;;;;;;;31.15;15.05;;;3.80;99.90;;;;;;5050703;28;20448;-84
2022/11/30 11:47:06;;;;;;;27.75;14.30;;;3.90;99.90;;;;;;5050814;28;20044;-83
2022/11/30 11:49:35;;;;;;;28.20;13.70;;;3.90;99.90;;;;;;5050135;28;20029;-84
2022/11/30 11:52:14;;;;;;;27.30;13.80;;;4.00;99.90;;;;;;5065730;28;20031;-85
2022/11/30 11:54:57;;;;;;;29.58;14.23;;;4.00;99.90;;;;;;5049288;28;20063;-84
2022/11/30 11:57:41;;;;;;;26.27;13.82;;;4.10;99.90;;;;;;5044443;28;20032;-83
2022/11/30 12:00:18;;;;;;;26.40;14.53;;;4.10;99.90;;;;;;5066429;28;20040;-84
2022/11/30 12:02:53;;;;;;;27.80;14.18;;;4.20;99.90;;;;;;5066036;28;20032;-84
2022/11/30 12:05:40;;;;;;;24.95;13.00;;;4.10;99.90;;;;;;5046507;28;20470;-83
2022/11/30 12:08:26;;;;;;;29.30;14.18;;;4.10;99.90;;;;;;5058356;28;20162;-84
2022/11/30 12:11:03;;;;;;;27.83;13.60;;;4.10;99.90;;;;;;5046487;28;20116;-85
2022/11/30 12:13:40;;;;;;;29.20;14.50;;;4.10;99.90;;;;;;5058699;28;20063;-83
2022/11/30 12:16:23;;;;;;;27.58;14.45;;;4.20;99.90;;;;;;5054046;28;20503;-84
2022/11/30 12:18:59;;;;;;;29.25;14.52;;;4.20;99.90;;;;;;5058477;28;20060;-84
2022/11/30 12:22:01;;;;;;;28.67;14.90;;;4.20;99.90;;;;;;5056429;28;20505;-84
2022/11/30 12:25:08;;;;;;;28.17;14.00;;;4.10;99.90;;;;;;5048735;28;20097;-83
2022/11/30 12:28:15;;;;;;;25.60;13.50;;;4.10;99.90;;;;;;5002715;28;20132;-83
2022/11/30 12:30:49;;;;;;;28.45;14.32;;;4.00;99.90;;;;;;5060566;28;20519;-84
2022/11/30 12:33:32;;;;;;;27.85;13.93;;;4.00;99.90;;;;;;5046190;28;20020;-83
2022/11/30 12:36:10;;;;;;;24.30;13.38;;;4.00;99.90;;;;;;5058082;28;20029;-83
2022/11/30 12:38:45;;;;;;;24.77;14.27;;;4.00;99.90;;;;;;5062428;28;20028;-84
2022/11/30 12:41:21;;;;;;;27.17;13.83;;;3.90;99.90;;;;;;5045466;28;20021;-84
2022/11/30 12:43:47;;;;;;;27.42;14.05;;;3.90;99.90;;;;;;5060979;28;20279;-83
2022/11/30 12:46:34;;;;;;;24.13;13.30;;;3.90;99.90;;;;;;5047854;28;20621;-84
2022/11/30 12:49:00;;;;;;;28.23;14.02;;;4.00;99.90;;;;;;5065405;28;20485;-84
2022/11/30 12:51:34;;;;;;;26.80;13.15;;;4.00;99.90;;;;;;5049656;28;20036;-84
2022/11/30 12:54:12;;;;;;;27.08;13.80;;;4.00;99.90;;;;;;5058736;28;20032;-83
2022/11/30 12:56:48;;;;;;;25.58;13.75;;;4.00;99.90;;;;;;5064776;28;20040;-84
2022/11/30 12:59:22;;;;;;;24.60;13.43;;;4.00;99.90;;;;;;5034105;28;20033;-84